sensor_id;sensor_type;location;lat;lon;timestamp;pressure;altitude;pressure_sealevel;temperature
15453;BMP280;7827;53.594;9.938;2023-11-21T00:00:11;34413.22;;;-135.29
15453;BMP280;7827;53.594;9.938;2023-11-21T00:02:41;34271.75;;;-135.29
15453;BMP280;7827;53.594;9.938;2023-11-21T00:05:12;34494.63;;;-135.29
15453;BMP280;7827;53.594;9.938;2023-11-21T00:07:42;34426.78;;;-135.29
15453;BMP280;7827;53.594;9.938;2023-11-21T00:10:12;34533.38;;;-135.29
15453;BMP280;7827;53.594;9.938;2023-11-21T00:12:43;34554.69;;;-135.29
15453;BMP280;7827;53.594;9.938;2023-11-21T00:15:11;34514.00;;;-135.29
15453;BMP280;7827;53.594;9.938;2023-11-21T00:17:40;34599.28;;;-135.29
15453;BMP280;7827;53.594;9.938;2023-11-21T00:20:10;34696.16;;;-135.29
15453;BMP280;7827;53.594;9.938;2023-11-21T00:22:41;34610.91;;;-135.29
15453;BMP280;7827;53.594;9.938;2023-11-21T00:25:10;34576.00;;;-135.29
15453;BMP280;7827;53.594;9.938;2023-11-21T00:27:39;34566.31;;;-135.29
15453;BMP280;7827;53.594;9.938;2023-11-21T00:30:10;34510.13;;;-135.29
15453;BMP280;7827;53.594;9.938;2023-11-21T00:32:39;34670.97;;;-135.29
15453;BMP280;7827;53.594;9.938;2023-11-21T00:35:08;34835.72;;;-135.29
15453;BMP280;7827;53.594;9.938;2023-11-21T00:37:39;34692.28;;;-135.29
15453;BMP280;7827;53.594;9.938;2023-11-21T00:40:09;34630.28;;;-135.29
15453;BMP280;7827;53.594;9.938;2023-11-21T00:42:38;34670.97;;;-135.29
15453;BMP280;7827;53.594;9.938;2023-11-21T00:45:09;34676.78;;;-135.29
15453;BMP280;7827;53.594;9.938;2023-11-21T00:47:38;34727.19;;;-135.29
15453;BMP280;7827;53.594;9.938;2023-11-21T00:50:08;34764.00;;;-135.29
15453;BMP280;7827;53.594;9.938;2023-11-21T00:52:36;34657.41;;;-135.29
15453;BMP280;7827;53.594;9.938;2023-11-21T00:55:06;34700.03;;;-135.29
15453;BMP280;7827;53.594;9.938;2023-11-21T00:57:35;34758.19;;;-135.29
15453;BMP280;7827;53.594;9.938;2023-11-21T01:00:06;34703.91;;;-135.29
15453;BMP280;7827;53.594;9.938;2023-11-21T01:02:42;34657.41;;;-135.29
15453;BMP280;7827;53.594;9.938;2023-11-21T01:05:11;34670.97;;;-135.29
15453;BMP280;7827;53.594;9.938;2023-11-21T01:07:40;34820.22;;;-135.29
15453;BMP280;7827;53.594;9.938;2023-11-21T01:10:09;34663.22;;;-135.29
15453;BMP280;7827;53.594;9.938;2023-11-21T01:12:38;34680.66;;;-135.29
15453;BMP280;7827;53.594;9.938;2023-11-21T01:15:07;34822.16;;;-135.29
15453;BMP280;7827;53.594;9.938;2023-11-21T01:17:36;34926.81;;;-135.29
15453;BMP280;7827;53.594;9.938;2023-11-21T01:20:08;34824.09;;;-135.29
15453;BMP280;7827;53.594;9.938;2023-11-21T01:22:40;34917.13;;;-135.29
15453;BMP280;7827;53.594;9.938;2023-11-21T01:25:09;34998.53;;;-135.29
15453;BMP280;7827;53.594;9.938;2023-11-21T01:27:38;34878.34;;;-135.29
15453;BMP280;7827;53.594;9.938;2023-11-21T01:30:07;34901.63;;;-135.29
15453;BMP280;7827;53.594;9.938;2023-11-21T01:32:37;34862.84;;;-135.29
15453;BMP280;7827;53.594;9.938;2023-11-21T01:35:08;34862.84;;;-135.29
15453;BMP280;7827;53.594;9.938;2023-11-21T01:37:37;35103.19;;;-135.29
15453;BMP280;7827;53.594;9.938;2023-11-21T01:40:08;35039.22;;;-135.29
15453;BMP280;7827;53.594;9.938;2023-11-21T01:42:41;34924.88;;;-135.29
15453;BMP280;7827;53.594;9.938;2023-11-21T01:45:11;34876.41;;;-135.29
15453;BMP280;7827;53.594;9.938;2023-11-21T01:47:42;34781.44;;;-135.29
15453;BMP280;7827;53.594;9.938;2023-11-21T01:50:16;35079.94;;;-135.29
15453;BMP280;7827;53.594;9.938;2023-11-21T01:52:46;35025.66;;;-135.29
15453;BMP280;7827;53.594;9.938;2023-11-21T01:55:17;35015.97;;;-135.29
15453;BMP280;7827;53.594;9.938;2023-11-21T01:57:55;35114.81;;;-135.29
15453;BMP280;7827;53.594;9.938;2023-11-21T02:00:24;34986.91;;;-135.29
15453;BMP280;7827;53.594;9.938;2023-11-21T02:02:55;34934.56;;;-135.29
15453;BMP280;7827;53.594;9.938;2023-11-21T02:05:25;34936.50;;;-135.29
15453;BMP280;7827;53.594;9.938;2023-11-21T02:07:54;35114.81;;;-135.29
15453;BMP280;7827;53.594;9.938;2023-11-21T02:10:24;35093.50;;;-135.29
15453;BMP280;7827;53.594;9.938;2023-11-21T02:12:52;35027.59;;;-135.29
15453;BMP280;7827;53.594;9.938;2023-11-21T02:15:22;35097.38;;;-135.29
15453;BMP280;7827;53.594;9.938;2023-11-21T02:17:54;35091.56;;;-135.29
15453;BMP280;7827;53.594;9.938;2023-11-21T02:20:24;34973.31;;;-135.29
15453;BMP280;7827;53.594;9.938;2023-11-21T02:22:56;34952.00;;;-135.29
15453;BMP280;7827;53.594;9.938;2023-11-21T02:25:28;35043.09;;;-135.29
15453;BMP280;7827;53.594;9.938;2023-11-21T02:27:59;35076.06;;;-135.29
15453;BMP280;7827;53.594;9.938;2023-11-21T02:30:28;35017.91;;;-135.29
15453;BMP280;7827;53.594;9.938;2023-11-21T02:32:59;35008.22;;;-135.29
15453;BMP280;7827;53.594;9.938;2023-11-21T02:35:28;35052.78;;;-135.29
15453;BMP280;7827;53.594;9.938;2023-11-21T02:37:59;35196.25;;;-135.29
15453;BMP280;7827;53.594;9.938;2023-11-21T02:40:28;35165.22;;;-135.29
15453;BMP280;7827;53.594;9.938;2023-11-21T02:42:57;35045.03;;;-135.29
15453;BMP280;7827;53.594;9.938;2023-11-21T02:45:27;35130.34;;;-135.29
15453;BMP280;7827;53.594;9.938;2023-11-21T02:47:55;35180.72;;;-135.29
15453;BMP280;7827;53.594;9.938;2023-11-21T02:50:25;35068.31;;;-135.29
15453;BMP280;7827;53.594;9.938;2023-11-21T02:52:54;35155.53;;;-135.29
15453;BMP280;7827;53.594;9.938;2023-11-21T02:55:26;35052.78;;;-135.29
15453;BMP280;7827;53.594;9.938;2023-11-21T02:57:54;34862.84;;;-135.29
15453;BMP280;7827;53.594;9.938;2023-11-21T03:00:24;35025.66;;;-135.29
15453;BMP280;7827;53.594;9.938;2023-11-21T03:02:54;35064.44;;;-135.29
15453;BMP280;7827;53.594;9.938;2023-11-21T03:05:22;35006.28;;;-135.29
15453;BMP280;7827;53.594;9.938;2023-11-21T03:07:50;35107.06;;;-135.29
15453;BMP280;7827;53.594;9.938;2023-11-21T03:10:19;35172.97;;;-135.29
15453;BMP280;7827;53.594;9.938;2023-11-21T03:12:50;35072.19;;;-135.29
15453;BMP280;7827;53.594;9.938;2023-11-21T03:15:19;35023.72;;;-135.29
15453;BMP280;7827;53.594;9.938;2023-11-21T03:17:48;35107.06;;;-135.29
15453;BMP280;7827;53.594;9.938;2023-11-21T03:20:17;34917.13;;;-135.29
15453;BMP280;7827;53.594;9.938;2023-11-21T03:22:45;35054.72;;;-135.29
15453;BMP280;7827;53.594;9.938;2023-11-21T03:25:15;34975.25;;;-135.29
15453;BMP280;7827;53.594;9.938;2023-11-21T03:27:44;35196.25;;;-135.29
15453;BMP280;7827;53.594;9.938;2023-11-21T03:30:14;35027.59;;;-135.29
15453;BMP280;7827;53.594;9.938;2023-11-21T03:32:44;35095.44;;;-135.29
15453;BMP280;7827;53.594;9.938;2023-11-21T03:35:12;35174.91;;;-135.29
15453;BMP280;7827;53.594;9.938;2023-11-21T03:37:41;35014.03;;;-135.29
15453;BMP280;7827;53.594;9.938;2023-11-21T03:40:11;35107.06;;;-135.29
15453;BMP280;7827;53.594;9.938;2023-11-21T03:42:40;35072.19;;;-135.29
15453;BMP280;7827;53.594;9.938;2023-11-21T03:45:09;35048.91;;;-135.29
15453;BMP280;7827;53.594;9.938;2023-11-21T03:47:42;35004.34;;;-135.29
15453;BMP280;7827;53.594;9.938;2023-11-21T03:50:10;35060.56;;;-135.29
15453;BMP280;7827;53.594;9.938;2023-11-21T03:52:39;34979.16;;;-135.29
15453;BMP280;7827;53.594;9.938;2023-11-21T03:55:08;35118.69;;;-135.29
15453;BMP280;7827;53.594;9.938;2023-11-21T03:57:39;35074.13;;;-135.29
15453;BMP280;7827;53.594;9.938;2023-11-21T04:00:09;35045.03;;;-135.29
15453;BMP280;7827;53.594;9.938;2023-11-21T04:02:41;35002.41;;;-135.29
15453;BMP280;7827;53.594;9.938;2023-11-21T04:05:10;35186.53;;;-135.29
15453;BMP280;7827;53.594;9.938;2023-11-21T04:07:39;35045.03;;;-135.29
15453;BMP280;7827;53.594;9.938;2023-11-21T04:10:08;34909.38;;;-135.29
15453;BMP280;7827;53.594;9.938;2023-11-21T04:12:39;35091.56;;;-135.29
15453;BMP280;7827;53.594;9.938;2023-11-21T04:15:09;34979.16;;;-135.29
15453;BMP280;7827;53.594;9.938;2023-11-21T04:17:38;35161.34;;;-135.29
15453;BMP280;7827;53.594;9.938;2023-11-21T04:20:09;35204.00;;;-135.29
15453;BMP280;7827;53.594;9.938;2023-11-21T04:22:38;35052.78;;;-135.29
15453;BMP280;7827;53.594;9.938;2023-11-21T04:25:09;35091.56;;;-135.29
15453;BMP280;7827;53.594;9.938;2023-11-21T04:27:39;35204.00;;;-135.29
15453;BMP280;7827;53.594;9.938;2023-11-21T04:30:12;35238.88;;;-135.29
15453;BMP280;7827;53.594;9.938;2023-11-21T04:32:41;35033.41;;;-135.29
15453;BMP280;7827;53.594;9.938;2023-11-21T04:35:11;35043.09;;;-135.29
15453;BMP280;7827;53.594;9.938;2023-11-21T04:37:39;35314.47;;;-135.29
15453;BMP280;7827;53.594;9.938;2023-11-21T04:40:09;35262.16;;;-135.29
15453;BMP280;7827;53.594;9.938;2023-11-21T04:42:38;35194.28;;;-135.29
15453;BMP280;7827;53.594;9.938;2023-11-21T04:45:08;34955.88;;;-135.29
15453;BMP280;7827;53.594;9.938;2023-11-21T04:47:40;35134.22;;;-135.29
15453;BMP280;7827;53.594;9.938;2023-11-21T04:50:10;35130.34;;;-135.29
15453;BMP280;7827;53.594;9.938;2023-11-21T04:52:39;35155.53;;;-135.29
15453;BMP280;7827;53.594;9.938;2023-11-21T04:55:08;35184.59;;;-135.29
15453;BMP280;7827;53.594;9.938;2023-11-21T04:57:38;34998.53;;;-135.29
15453;BMP280;7827;53.594;9.938;2023-11-21T05:00:10;34967.50;;;-135.29
15453;BMP280;7827;53.594;9.938;2023-11-21T05:02:40;34998.53;;;-135.29
15453;BMP280;7827;53.594;9.938;2023-11-21T05:05:10;35163.28;;;-135.29
15453;BMP280;7827;53.594;9.938;2023-11-21T05:07:40;35093.50;;;-135.29
15453;BMP280;7827;53.594;9.938;2023-11-21T05:10:09;35058.63;;;-135.29
15453;BMP280;7827;53.594;9.938;2023-11-21T05:12:40;35058.63;;;-135.29
15453;BMP280;7827;53.594;9.938;2023-11-21T05:15:13;34988.84;;;-135.29
15453;BMP280;7827;53.594;9.938;2023-11-21T05:17:42;35056.69;;;-135.29
15453;BMP280;7827;53.594;9.938;2023-11-21T05:20:14;35128.41;;;-135.29
15453;BMP280;7827;53.594;9.938;2023-11-21T05:22:45;35070.25;;;-135.29
15453;BMP280;7827;53.594;9.938;2023-11-21T05:25:14;35025.66;;;-135.29
15453;BMP280;7827;53.594;9.938;2023-11-21T05:27:44;35169.09;;;-135.29
15453;BMP280;7827;53.594;9.938;2023-11-21T05:30:14;35161.34;;;-135.29
15453;BMP280;7827;53.594;9.938;2023-11-21T05:32:42;35095.44;;;-135.29
15453;BMP280;7827;53.594;9.938;2023-11-21T05:35:12;35172.97;;;-135.29
15453;BMP280;7827;53.594;9.938;2023-11-21T05:37:44;35056.69;;;-135.29
15453;BMP280;7827;53.594;9.938;2023-11-21T05:40:14;35068.31;;;-135.29
15453;BMP280;7827;53.594;9.938;2023-11-21T05:42:44;35021.78;;;-135.29
15453;BMP280;7827;53.594;9.938;2023-11-21T05:45:12;35037.28;;;-135.29
15453;BMP280;7827;53.594;9.938;2023-11-21T05:47:43;35188.47;;;-135.29
15453;BMP280;7827;53.594;9.938;2023-11-21T05:50:16;34975.25;;;-135.29
15453;BMP280;7827;53.594;9.938;2023-11-21T05:52:47;35008.22;;;-135.29
15453;BMP280;7827;53.594;9.938;2023-11-21T05:55:16;35021.78;;;-135.29
15453;BMP280;7827;53.594;9.938;2023-11-21T05:57:44;34984.97;;;-135.29
15453;BMP280;7827;53.594;9.938;2023-11-21T06:00:14;35056.69;;;-135.29
15453;BMP280;7827;53.594;9.938;2023-11-21T06:02:47;35072.19;;;-135.29
15453;BMP280;7827;53.594;9.938;2023-11-21T06:05:21;34926.81;;;-135.29
15453;BMP280;7827;53.594;9.938;2023-11-21T06:07:51;34959.75;;;-135.29
15453;BMP280;7827;53.594;9.938;2023-11-21T06:10:21;34891.91;;;-135.29
15453;BMP280;7827;53.594;9.938;2023-11-21T06:12:52;35083.81;;;-135.29
15453;BMP280;7827;53.594;9.938;2023-11-21T06:15:21;35017.91;;;-135.29
15453;BMP280;7827;53.594;9.938;2023-11-21T06:17:51;35103.19;;;-135.29
15453;BMP280;7827;53.594;9.938;2023-11-21T06:20:22;34930.69;;;-135.29
15453;BMP280;7827;53.594;9.938;2023-11-21T06:22:51;34992.72;;;-135.29
15453;BMP280;7827;53.594;9.938;2023-11-21T06:25:20;35046.97;;;-135.29
15453;BMP280;7827;53.594;9.938;2023-11-21T06:27:49;35072.19;;;-135.29
15453;BMP280;7827;53.594;9.938;2023-11-21T06:30:18;34986.91;;;-135.29
15453;BMP280;7827;53.594;9.938;2023-11-21T06:32:48;34983.03;;;-135.29
15453;BMP280;7827;53.594;9.938;2023-11-21T06:35:18;34862.84;;;-135.29
15453;BMP280;7827;53.594;9.938;2023-11-21T06:37:48;34988.84;;;-135.29
15453;BMP280;7827;53.594;9.938;2023-11-21T06:40:18;34998.53;;;-135.29
15453;BMP280;7827;53.594;9.938;2023-11-21T06:42:48;35029.53;;;-135.29
15453;BMP280;7827;53.594;9.938;2023-11-21T06:45:18;34901.63;;;-135.29
15453;BMP280;7827;53.594;9.938;2023-11-21T06:47:47;34880.28;;;-135.29
15453;BMP280;7827;53.594;9.938;2023-11-21T06:50:17;34944.25;;;-135.29
15453;BMP280;7827;53.594;9.938;2023-11-21T06:52:47;34921.00;;;-135.29
15453;BMP280;7827;53.594;9.938;2023-11-21T06:55:16;34855.09;;;-135.29
15453;BMP280;7827;53.594;9.938;2023-11-21T06:57:44;34855.09;;;-135.29
15453;BMP280;7827;53.594;9.938;2023-11-21T07:00:17;34952.00;;;-135.29
15453;BMP280;7827;53.594;9.938;2023-11-21T07:02:46;35143.91;;;-135.29
15453;BMP280;7827;53.594;9.938;2023-11-21T07:05:15;34967.50;;;-135.29
15453;BMP280;7827;53.594;9.938;2023-11-21T07:07:49;35033.41;;;-135.29
15453;BMP280;7827;53.594;9.938;2023-11-21T07:10:18;35112.88;;;-135.29
15453;BMP280;7827;53.594;9.938;2023-11-21T07:12:46;34924.88;;;-135.29
15453;BMP280;7827;53.594;9.938;2023-11-21T07:15:15;34977.19;;;-135.29
15453;BMP280;7827;53.594;9.938;2023-11-21T07:17:43;34944.25;;;-135.29
15453;BMP280;7827;53.594;9.938;2023-11-21T07:20:14;35095.44;;;-135.29
15453;BMP280;7827;53.594;9.938;2023-11-21T07:22:44;34868.66;;;-135.29
15453;BMP280;7827;53.594;9.938;2023-11-21T07:25:13;34984.97;;;-135.29
15453;BMP280;7827;53.594;9.938;2023-11-21T07:27:42;35048.91;;;-135.29
15453;BMP280;7827;53.594;9.938;2023-11-21T07:30:12;34955.88;;;-135.29
15453;BMP280;7827;53.594;9.938;2023-11-21T07:32:41;34847.34;;;-135.29
15453;BMP280;7827;53.594;9.938;2023-11-21T07:35:09;34921.00;;;-135.29
15453;BMP280;7827;53.594;9.938;2023-11-21T07:37:38;35039.22;;;-135.29
15453;BMP280;7827;53.594;9.938;2023-11-21T07:40:08;35025.66;;;-135.29
15453;BMP280;7827;53.594;9.938;2023-11-21T07:42:40;35062.50;;;-135.29
15453;BMP280;7827;53.594;9.938;2023-11-21T07:45:10;34984.97;;;-135.29
15453;BMP280;7827;53.594;9.938;2023-11-21T07:47:39;34971.38;;;-135.29
15453;BMP280;7827;53.594;9.938;2023-11-21T07:50:09;34998.53;;;-135.29
15453;BMP280;7827;53.594;9.938;2023-11-21T07:52:37;35014.03;;;-135.29
15453;BMP280;7827;53.594;9.938;2023-11-21T07:55:07;35128.41;;;-135.29
15453;BMP280;7827;53.594;9.938;2023-11-21T07:57:35;34990.78;;;-135.29
15453;BMP280;7827;53.594;9.938;2023-11-21T08:00:07;34944.25;;;-135.29
15453;BMP280;7827;53.594;9.938;2023-11-21T08:02:39;34857.03;;;-135.29
15453;BMP280;7827;53.594;9.938;2023-11-21T08:05:10;34886.09;;;-135.29
15453;BMP280;7827;53.594;9.938;2023-11-21T08:07:51;35021.78;;;-135.29
15453;BMP280;7827;53.594;9.938;2023-11-21T08:10:19;35000.47;;;-135.29
15453;BMP280;7827;53.594;9.938;2023-11-21T08:12:49;35015.97;;;-135.29
15453;BMP280;7827;53.594;9.938;2023-11-21T08:15:20;35050.84;;;-135.29
15453;BMP280;7827;53.594;9.938;2023-11-21T08:17:48;34948.13;;;-135.29
15453;BMP280;7827;53.594;9.938;2023-11-21T08:20:17;34940.38;;;-135.29
15453;BMP280;7827;53.594;9.938;2023-11-21T08:22:46;34909.38;;;-135.29
15453;BMP280;7827;53.594;9.938;2023-11-21T08:25:15;35153.59;;;-135.29
15453;BMP280;7827;53.594;9.938;2023-11-21T08:27:46;34913.25;;;-135.29
15453;BMP280;7827;53.594;9.938;2023-11-21T08:30:15;34835.72;;;-135.29
15453;BMP280;7827;53.594;9.938;2023-11-21T08:32:47;34981.06;;;-135.29
15453;BMP280;7827;53.594;9.938;2023-11-21T08:35:16;34994.66;;;-135.29
15453;BMP280;7827;53.594;9.938;2023-11-21T08:37:44;34938.44;;;-135.29
15453;BMP280;7827;53.594;9.938;2023-11-21T08:40:13;34824.09;;;-135.29
15453;BMP280;7827;53.594;9.938;2023-11-21T08:42:44;34932.63;;;-135.29
15453;BMP280;7827;53.594;9.938;2023-11-21T08:45:13;34862.84;;;-135.29
15453;BMP280;7827;53.594;9.938;2023-11-21T08:47:42;34971.38;;;-135.29
15453;BMP280;7827;53.594;9.938;2023-11-21T08:50:13;34996.59;;;-135.29
15453;BMP280;7827;53.594;9.938;2023-11-21T08:52:44;34963.63;;;-135.29
15453;BMP280;7827;53.594;9.938;2023-11-21T08:55:13;34984.97;;;-135.29
15453;BMP280;7827;53.594;9.938;2023-11-21T08:57:44;34926.81;;;-135.29
15453;BMP280;7827;53.594;9.938;2023-11-21T09:00:14;34855.09;;;-135.29
15453;BMP280;7827;53.594;9.938;2023-11-21T09:02:44;34843.47;;;-135.29
15453;BMP280;7827;53.594;9.938;2023-11-21T09:05:15;34748.50;;;-135.29
15453;BMP280;7827;53.594;9.938;2023-11-21T09:07:44;34800.81;;;-135.29
15453;BMP280;7827;53.594;9.938;2023-11-21T09:10:16;34816.34;;;-135.29
15453;BMP280;7827;53.594;9.938;2023-11-21T09:12:44;34926.81;;;-135.29
15453;BMP280;7827;53.594;9.938;2023-11-21T09:15:12;34882.22;;;-135.29
15453;BMP280;7827;53.594;9.938;2023-11-21T09:17:42;34827.97;;;-135.29
15453;BMP280;7827;53.594;9.938;2023-11-21T09:20:12;34839.59;;;-135.29
15453;BMP280;7827;53.594;9.938;2023-11-21T09:22:43;35041.16;;;-135.29
15453;BMP280;7827;53.594;9.938;2023-11-21T09:25:13;34804.69;;;-135.29
15453;BMP280;7827;53.594;9.938;2023-11-21T09:27:41;34789.19;;;-135.29
15453;BMP280;7827;53.594;9.938;2023-11-21T09:30:11;34870.59;;;-135.29
15453;BMP280;7827;53.594;9.938;2023-11-21T09:32:41;34860.91;;;-135.29
15453;BMP280;7827;53.594;9.938;2023-11-21T09:35:13;34893.84;;;-135.29
15453;BMP280;7827;53.594;9.938;2023-11-21T09:37:44;34783.38;;;-135.29
15453;BMP280;7827;53.594;9.938;2023-11-21T09:40:22;34808.56;;;-135.29
15453;BMP280;7827;53.594;9.938;2023-11-21T09:42:55;34783.38;;;-135.29
15453;BMP280;7827;53.594;9.938;2023-11-21T09:45:28;34829.91;;;-135.29
15453;BMP280;7827;53.594;9.938;2023-11-21T09:47:58;34746.56;;;-135.29
15453;BMP280;7827;53.594;9.938;2023-11-21T09:50:27;34880.28;;;-135.29
15453;BMP280;7827;53.594;9.938;2023-11-21T09:53:11;34847.34;;;-135.29
15453;BMP280;7827;53.594;9.938;2023-11-21T09:55:43;34897.72;;;-135.29
15453;BMP280;7827;53.594;9.938;2023-11-21T09:58:13;34905.50;;;-135.29
15453;BMP280;7827;53.594;9.938;2023-11-21T10:00:43;34779.50;;;-135.29
15453;BMP280;7827;53.594;9.938;2023-11-21T10:03:11;34762.06;;;-135.29
15453;BMP280;7827;53.594;9.938;2023-11-21T10:05:42;34680.66;;;-135.29
15453;BMP280;7827;53.594;9.938;2023-11-21T10:08:14;34793.06;;;-135.29
15453;BMP280;7827;53.594;9.938;2023-11-21T10:10:45;34746.56;;;-135.29
15453;BMP280;7827;53.594;9.938;2023-11-21T10:13:17;34711.69;;;-135.29
15453;BMP280;7827;53.594;9.938;2023-11-21T10:15:51;34762.06;;;-135.29
15453;BMP280;7827;53.594;9.938;2023-11-21T10:18:20;34703.91;;;-135.29
15453;BMP280;7827;53.594;9.938;2023-11-21T10:20:50;34742.69;;;-135.29
15453;BMP280;7827;53.594;9.938;2023-11-21T10:23:23;34804.69;;;-135.29
15453;BMP280;7827;53.594;9.938;2023-11-21T10:25:52;34814.41;;;-135.29
15453;BMP280;7827;53.594;9.938;2023-11-21T10:28:24;34983.03;;;-135.29
15453;BMP280;7827;53.594;9.938;2023-11-21T10:30:53;34795.00;;;-135.29
15453;BMP280;7827;53.594;9.938;2023-11-21T10:33:27;34845.41;;;-135.29
15453;BMP280;7827;53.594;9.938;2023-11-21T10:35:56;34800.81;;;-135.29
15453;BMP280;7827;53.594;9.938;2023-11-21T10:38:26;34921.00;;;-135.29
15453;BMP280;7827;53.594;9.938;2023-11-21T10:40:55;34864.78;;;-135.29
15453;BMP280;7827;53.594;9.938;2023-11-21T10:43:25;34992.72;;;-135.29
15453;BMP280;7827;53.594;9.938;2023-11-21T10:45:58;34897.72;;;-135.29
15453;BMP280;7827;53.594;9.938;2023-11-21T10:48:27;34913.25;;;-135.29
15453;BMP280;7827;53.594;9.938;2023-11-21T10:50:56;34804.69;;;-135.29
15453;BMP280;7827;53.594;9.938;2023-11-21T10:53:28;35050.84;;;-135.29
15453;BMP280;7827;53.594;9.938;2023-11-21T10:56:05;35021.78;;;-135.29
15453;BMP280;7827;53.594;9.938;2023-11-21T10:58:37;34839.59;;;-135.29
15453;BMP280;7827;53.594;9.938;2023-11-21T11:01:07;34967.50;;;-135.29
15453;BMP280;7827;53.594;9.938;2023-11-21T11:03:39;34965.56;;;-135.29
15453;BMP280;7827;53.594;9.938;2023-11-21T11:06:08;34948.13;;;-135.29
15453;BMP280;7827;53.594;9.938;2023-11-21T11:08:40;34963.63;;;-135.29
15453;BMP280;7827;53.594;9.938;2023-11-21T11:11:10;35002.41;;;-135.29
15453;BMP280;7827;53.594;9.938;2023-11-21T11:13:43;34944.25;;;-135.29
15453;BMP280;7827;53.594;9.938;2023-11-21T11:16:13;34909.38;;;-135.29
15453;BMP280;7827;53.594;9.938;2023-11-21T11:18:44;34942.31;;;-135.29
15453;BMP280;7827;53.594;9.938;2023-11-21T11:21:27;35050.84;;;-135.29
15453;BMP280;7827;53.594;9.938;2023-11-21T11:24:21;34888.03;;;-135.29
15453;BMP280;7827;53.594;9.938;2023-11-21T11:27:02;34959.75;;;-135.29
15453;BMP280;7827;53.594;9.938;2023-11-21T11:29:46;34975.25;;;-135.29
15453;BMP280;7827;53.594;9.938;2023-11-21T11:32:32;34843.47;;;-135.29
15453;BMP280;7827;53.594;9.938;2023-11-21T11:35:16;34907.44;;;-135.29
15453;BMP280;7827;53.594;9.938;2023-11-21T11:37:46;34831.84;;;-135.29
15453;BMP280;7827;53.594;9.938;2023-11-21T11:40:15;34897.72;;;-135.29
15453;BMP280;7827;53.594;9.938;2023-11-21T11:42:58;35050.84;;;-135.29
15453;BMP280;7827;53.594;9.938;2023-11-21T11:45:34;34917.13;;;-135.29
15453;BMP280;7827;53.594;9.938;2023-11-21T11:48:06;34992.72;;;-135.29
15453;BMP280;7827;53.594;9.938;2023-11-21T11:50:34;34882.22;;;-135.29
15453;BMP280;7827;53.594;9.938;2023-11-21T11:53:14;35099.31;;;-135.29
15453;BMP280;7827;53.594;9.938;2023-11-21T11:55:44;35010.16;;;-135.29
15453;BMP280;7827;53.594;9.938;2023-11-21T11:58:13;34864.78;;;-135.29
15453;BMP280;7827;53.594;9.938;2023-11-21T12:00:42;34952.00;;;-135.29
15453;BMP280;7827;53.594;9.938;2023-11-21T12:03:13;34948.13;;;-135.29
15453;BMP280;7827;53.594;9.938;2023-11-21T12:05:42;34812.47;;;-135.29
15453;BMP280;7827;53.594;9.938;2023-11-21T12:08:12;34928.75;;;-135.29
15453;BMP280;7827;53.594;9.938;2023-11-21T12:10:40;34930.69;;;-135.29
15453;BMP280;7827;53.594;9.938;2023-11-21T12:13:11;35039.22;;;-135.29
15453;BMP280;7827;53.594;9.938;2023-11-21T12:15:40;35079.94;;;-135.29
15453;BMP280;7827;53.594;9.938;2023-11-21T12:18:09;34961.69;;;-135.29
15453;BMP280;7827;53.594;9.938;2023-11-21T12:20:39;34952.00;;;-135.29
15453;BMP280;7827;53.594;9.938;2023-11-21T12:23:09;35072.19;;;-135.29
15453;BMP280;7827;53.594;9.938;2023-11-21T12:25:38;35161.34;;;-135.29
15453;BMP280;7827;53.594;9.938;2023-11-21T12:28:08;34952.00;;;-135.29
15453;BMP280;7827;53.594;9.938;2023-11-21T12:30:38;34891.91;;;-135.29
15453;BMP280;7827;53.594;9.938;2023-11-21T12:33:07;34969.44;;;-135.29
15453;BMP280;7827;53.594;9.938;2023-11-21T12:35:38;34853.16;;;-135.29
15453;BMP280;7827;53.594;9.938;2023-11-21T12:38:07;34921.00;;;-135.29
15453;BMP280;7827;53.594;9.938;2023-11-21T12:40:36;35014.03;;;-135.29
15453;BMP280;7827;53.594;9.938;2023-11-21T12:43:07;34886.09;;;-135.29
15453;BMP280;7827;53.594;9.938;2023-11-21T12:45:38;34944.25;;;-135.29
15453;BMP280;7827;53.594;9.938;2023-11-21T12:48:06;35014.03;;;-135.29
15453;BMP280;7827;53.594;9.938;2023-11-21T12:50:37;34924.88;;;-135.29
15453;BMP280;7827;53.594;9.938;2023-11-21T12:53:09;34922.94;;;-135.29
15453;BMP280;7827;53.594;9.938;2023-11-21T12:55:40;34812.47;;;-135.29
15453;BMP280;7827;53.594;9.938;2023-11-21T12:58:10;34841.53;;;-135.29
15453;BMP280;7827;53.594;9.938;2023-11-21T13:00:46;34820.22;;;-135.29
15453;BMP280;7827;53.594;9.938;2023-11-21T13:03:17;34897.72;;;-135.29
15453;BMP280;7827;53.594;9.938;2023-11-21T13:05:48;34930.69;;;-135.29
15453;BMP280;7827;53.594;9.938;2023-11-21T13:08:21;34880.28;;;-135.29
15453;BMP280;7827;53.594;9.938;2023-11-21T13:10:53;34936.50;;;-135.29
15453;BMP280;7827;53.594;9.938;2023-11-21T13:13:24;34996.59;;;-135.29
15453;BMP280;7827;53.594;9.938;2023-11-21T13:15:59;34975.25;;;-135.29
15453;BMP280;7827;53.594;9.938;2023-11-21T13:18:31;34889.97;;;-135.29
15453;BMP280;7827;53.594;9.938;2023-11-21T13:21:03;34882.22;;;-135.29
15453;BMP280;7827;53.594;9.938;2023-11-21T13:23:36;34843.47;;;-135.29
15453;BMP280;7827;53.594;9.938;2023-11-21T13:26:06;34765.94;;;-135.29
15453;BMP280;7827;53.594;9.938;2023-11-21T13:28:36;34882.22;;;-135.29
15453;BMP280;7827;53.594;9.938;2023-11-21T13:31:07;34998.53;;;-135.29
15453;BMP280;7827;53.594;9.938;2023-11-21T13:33:49;35010.16;;;-135.29
15453;BMP280;7827;53.594;9.938;2023-11-21T13:36:23;35112.88;;;-135.29
15453;BMP280;7827;53.594;9.938;2023-11-21T13:38:53;35033.41;;;-135.29
15453;BMP280;7827;53.594;9.938;2023-11-21T13:41:22;35048.91;;;-135.29
15453;BMP280;7827;53.594;9.938;2023-11-21T13:43:55;34853.16;;;-135.29
15453;BMP280;7827;53.594;9.938;2023-11-21T13:46:32;35050.84;;;-135.29
15453;BMP280;7827;53.594;9.938;2023-11-21T13:49:05;34952.00;;;-135.29
15453;BMP280;7827;53.594;9.938;2023-11-21T13:51:37;34891.91;;;-135.29
15453;BMP280;7827;53.594;9.938;2023-11-21T13:54:10;34965.56;;;-135.29
15453;BMP280;7827;53.594;9.938;2023-11-21T13:56:39;34973.31;;;-135.29
15453;BMP280;7827;53.594;9.938;2023-11-21T13:59:08;34919.06;;;-135.29
15453;BMP280;7827;53.594;9.938;2023-11-21T14:01:47;35126.44;;;-135.29
15453;BMP280;7827;53.594;9.938;2023-11-21T14:04:27;34981.06;;;-135.29
15453;BMP280;7827;53.594;9.938;2023-11-21T14:07:10;35145.84;;;-135.29
15453;BMP280;7827;53.594;9.938;2023-11-21T14:09:52;35161.34;;;-135.29
15453;BMP280;7827;53.594;9.938;2023-11-21T14:12:20;35066.38;;;-135.29
15453;BMP280;7827;53.594;9.938;2023-11-21T14:14:48;35246.63;;;-135.29